Terminal Aerodrome Forecast
Issued by NWS Sterling, VA

Home | Current Version | Previous Version | Text Only | Print | Product List | Glossary On
Versions: 1 2 3 4 5 6 7 8 9 10 11 12 13 14 15 16 17 18 19 20
111
FTUS41 KLWX 281124
TAFDCA
TAF
KDCA 281124Z 2812/2912 20009KT P6SM SCT250
     FM281700 16010KT P6SM SCT250
     FM290200 17006KT P6SM FEW250=

USA.gov is the U.S. government's official web portal to all federal, state and local government web resources and services.